Skip Navigation Links
NOAA logo - Click to go to the NOAA homepage
NOAA's National Weather Service
Alaska Aviation Weather Unit
  NWS logo - Click to go to the NWS homepage
Left Navbar Graphic     03 AKDT = 11 GMT

   
NOAA is celebrating 200 years of science, service, and stewardship. Visit the NOAA 200th celebration Web site to learn more.
USA.gov is the U.S. Government's official Web portal to all Federal, state and local government Web resources and services.
Facebook
NWS on Facebook

AAWU Home :: Display TAF Add Bookmark
TAF PATA 290749Z 2908/3006 VRB03KT 4SM -SN OVC040
      TEMPO 2908/2912 2SM -SN BKN025
     FM291600 06004KT 3SM -SN BR BKN025 OVC045
     FM300400 10004KT 6SM -SN BR SCT025 BKN035 OVC045=

METAR PATA 290552Z AUTO 09005KT 8SM -SN BKN050 OVC065 M07/M12 A2968 RMK AO2 SNB52 SLP056 T10721122 11067 21083 53011 TSNO PNO= METAR PATA 290652Z AUTO 00000KT 4SM -SN BR OVC042 M08/M11 A2967 RMK AO2 SLP054 T10831106 TSNO PNO= SPECI PATA 290705Z AUTO 00000KT 2 1/2SM -SN BR OVC029 M08/M11 A2967 RMK AO2 T10831106 TSNO PNO= METAR PATA 290752Z AUTO 00000KT 1 3/4SM -SN BR OVC024 M08/M10 A2968 RMK AO2 SLP057 T10831100 TSNO PNO= SPECI PATA 290829Z AUTO 01003KT 2SM -SN BR OVC029 M09/M10 A2969 RMK AO2 T10891100 TSNO PNO= SPECI PATA 290837Z AUTO 35003KT 3SM -SN BR OVC038 M09/M10 A2969 RMK AO2 T10891100 TSNO PNO= METAR PATA 290852Z AUTO 00000KT 4SM -SN BR BKN049 OVC070 M09/M10 A2969 RMK AO2 SLP059 T10891100 410671117 53003 TSNO PNO= METAR PATA 290952Z AUTO 00000KT 4SM -SN BR OVC045 M09/M10 A2969 RMK AO2 SLP059 T10891100 TSNO PNO= SPECI PATA 291009Z AUTO 00000KT 1 3/4SM -SN BR OVC025 M09/M10 A2969 RMK AO2 T10891100 TSNO PNO= SPECI PATA 291029Z AUTO 00000KT 2 1/2SM -SN BR BKN025 OVC060 M09/M10 A2969 RMK AO2 T10891100 TSNO PNO= SPECI PATA 291033Z AUTO 00000KT 3SM -SN BR BKN031 OVC060 M09/M10 A2969 RMK AO2 T10891100 TSNO PNO= METAR PATA 291052Z AUTO 00000KT 4SM -SN BR BKN050 OVC060 M09/M10 A2970 RMK AO2 SLP062 T10891100 TSNO PNO=
 Alaska TAF Map

NOAA's National Weather Service
Alaska Aviation Weather Unit
6930 Sand Lake Road
Anchorage, AK 99502-1845
Disclaimer
Credits
Glossary
Privacy Policy
About Us
Career Opportunities
Contact AAWU Internet Services Site last modified: April, 17th 2012